createdAt,value
2023-04-12T00:00:53.413Z,4.85
2023-04-12T00:01:57.737Z,4.93
2023-04-12T00:03:05.556Z,5.05
2023-04-12T00:04:09.204Z,5.05
2023-04-12T00:05:16.219Z,5.10
2023-04-12T00:06:21.993Z,5.10
2023-04-12T00:07:31.554Z,5.13
2023-04-12T00:08:37.150Z,5.14
2023-04-12T00:09:43.106Z,5.15
2023-04-12T00:10:46.834Z,5.15
2023-04-12T00:11:53.415Z,5.19
2023-04-12T00:12:56.894Z,5.25
2023-04-12T00:14:04.317Z,5.26
2023-04-12T00:15:12.097Z,5.29
2023-04-12T00:16:19.524Z,5.34
2023-04-12T00:17:23.125Z,5.40
2023-04-12T00:18:29.352Z,5.39
2023-04-12T00:19:37.767Z,5.38
2023-04-12T00:20:43.988Z,5.37
2023-04-12T00:21:47.803Z,5.47
2023-04-12T00:22:58.311Z,5.49
2023-04-12T00:24:01.666Z,5.53
2023-04-12T00:25:09.350Z,5.50
2023-04-12T00:26:13.567Z,5.52
2023-04-12T00:27:20.260Z,5.62
2023-04-12T00:28:24.584Z,5.58
2023-04-12T00:29:30.944Z,5.63
2023-04-12T00:30:35.421Z,5.64
2023-04-12T00:31:42.042Z,5.60
2023-04-12T00:32:46.151Z,5.57
2023-04-12T00:33:52.181Z,5.56
2023-04-12T00:34:55.206Z,5.60
2023-04-12T00:36:01.791Z,5.59
2023-04-12T00:37:05.590Z,5.56
2023-04-12T00:38:16.524Z,5.56
2023-04-12T00:39:23.272Z,5.56
2023-04-12T00:40:30.857Z,5.55
2023-04-12T00:41:34.651Z,5.54
2023-04-12T00:42:41.919Z,5.53
2023-04-12T00:43:45.912Z,5.55
2023-04-12T00:44:52.605Z,5.66
2023-04-12T00:45:58.706Z,5.64
2023-04-12T00:47:05.658Z,5.63
2023-04-12T00:48:09.293Z,5.60
2023-04-12T00:49:19.367Z,5.60
2023-04-12T00:50:26.159Z,5.56
2023-04-12T00:51:35.426Z,5.52
2023-04-12T00:52:43.502Z,5.49
2023-04-12T00:53:50.483Z,5.51
2023-04-12T00:54:58.288Z,5.46
2023-04-12T00:56:04.263Z,5.47
2023-04-12T00:57:10.862Z,5.47
2023-04-12T00:58:15.251Z,5.44
2023-04-12T00:59:21.715Z,5.45
2023-04-12T01:00:28.466Z,5.43
2023-04-12T01:01:33.861Z,5.44
2023-04-12T01:02:42.067Z,5.45
2023-04-12T01:03:46.422Z,5.46
2023-04-12T01:04:59.321Z,5.45
2023-04-12T01:06:15.704Z,5.50
2023-04-12T01:07:37.779Z,5.50
2023-04-12T01:08:53.377Z,5.43
2023-04-12T01:10:08.942Z,5.37
2023-04-12T01:11:19.858Z,5.39
2023-04-12T01:12:40.525Z,5.41
2023-04-12T01:13:55.415Z,5.30
2023-04-12T01:15:06.934Z,5.24
2023-04-12T01:16:21.040Z,5.14
2023-04-12T01:17:35.852Z,5.09
2023-04-12T01:18:43.167Z,5.05
2023-04-12T01:20:00.455Z,5.06
2023-04-12T01:21:08.637Z,5.04
2023-04-12T01:22:21.693Z,5.02
2023-04-12T01:23:44.312Z,5.07
2023-04-12T01:25:13.959Z,5.07
2023-04-12T01:26:33.907Z,5.01
2023-04-12T01:27:48.853Z,4.98
2023-04-12T01:28:55.401Z,5.00
2023-04-12T01:30:05.524Z,4.96
2023-04-12T01:31:10.339Z,4.95
2023-04-12T01:32:18.358Z,4.88
2023-04-12T01:33:23.868Z,4.84
2023-04-12T01:34:34.275Z,4.83
2023-04-12T01:35:39.827Z,4.82
2023-04-12T01:36:50.080Z,4.84
2023-04-12T01:37:57.397Z,4.80
2023-04-12T01:39:05.393Z,4.77
2023-04-12T01:40:10.319Z,4.77
2023-04-12T01:41:18.476Z,4.74
2023-04-12T01:42:22.971Z,4.73
2023-04-12T01:43:35.039Z,4.75
2023-04-12T01:44:38.643Z,4.76
2023-04-12T01:45:45.321Z,4.72
2023-04-12T01:46:49.612Z,4.72
2023-04-12T01:47:56.171Z,4.71
2023-04-12T01:49:00.176Z,4.72
2023-04-12T01:50:19.693Z,4.71
2023-04-12T01:51:36.257Z,4.70
2023-04-12T01:52:49.859Z,4.72
2023-04-12T01:54:01.814Z,4.77
2023-04-12T01:55:10.520Z,4.80
2023-04-12T01:56:14.754Z,4.77
2023-04-12T01:57:24.554Z,4.78
2023-04-12T01:58:32.349Z,4.76
2023-04-12T01:59:44.859Z,4.77
2023-04-12T02:00:49.640Z,4.71
2023-04-12T02:01:56.949Z,4.66
2023-04-12T02:03:01.399Z,4.67
2023-04-12T02:04:10.118Z,4.65
2023-04-12T02:05:14.352Z,4.62
2023-04-12T02:06:25.422Z,4.59
2023-04-12T02:07:29.464Z,4.59
2023-04-12T02:08:38.920Z,4.58
2023-04-12T02:09:43.469Z,4.61
2023-04-12T02:10:50.658Z,4.62
2023-04-12T02:11:55.157Z,4.65
2023-04-12T02:13:03.805Z,4.66
2023-04-12T02:14:10.946Z,4.70
2023-04-12T02:15:17.800Z,4.65
2023-04-12T02:16:24.033Z,4.56
2023-04-12T02:17:33.286Z,4.52
2023-04-12T02:18:37.324Z,4.47
2023-04-12T02:19:44.324Z,4.46
2023-04-12T02:20:47.972Z,4.46
2023-04-12T02:21:54.615Z,4.46
2023-04-12T02:22:58.098Z,4.46
2023-04-12T02:24:06.721Z,4.43
2023-04-12T02:25:11.230Z,4.42
2023-04-12T02:26:18.503Z,4.38
2023-04-12T02:27:22.931Z,4.40
2023-04-12T02:28:29.717Z,4.39
2023-04-12T02:29:37.075Z,4.40
2023-04-12T02:30:44.100Z,4.37
2023-04-12T02:31:49.090Z,4.37
2023-04-12T02:32:59.849Z,4.38
2023-04-12T02:34:04.501Z,4.38
2023-04-12T02:35:12.304Z,4.37
2023-04-12T02:36:16.758Z,4.45
2023-04-12T02:37:24.666Z,4.42
2023-04-12T02:38:31.950Z,4.40
2023-04-12T02:39:39.347Z,4.38
2023-04-12T02:40:46.010Z,4.38
2023-04-12T02:41:49.985Z,4.38
2023-04-12T02:42:58.870Z,4.36
2023-04-12T02:44:02.921Z,4.39
2023-04-12T02:45:15.957Z,4.41
2023-04-12T02:46:22.228Z,4.41
2023-04-12T02:47:29.763Z,4.40
2023-04-12T02:48:34.770Z,4.42
2023-04-12T02:49:40.780Z,4.47
2023-04-12T02:50:45.368Z,4.52
2023-04-12T02:51:52.042Z,4.58
2023-04-12T02:52:58.456Z,4.61
2023-04-12T02:54:04.717Z,4.69
2023-04-12T02:55:09.896Z,4.66
2023-04-12T02:56:19.939Z,4.68
2023-04-12T02:57:24.065Z,4.61
2023-04-12T02:58:30.604Z,4.57
2023-04-12T02:59:34.445Z,4.53
2023-04-12T03:00:44.777Z,4.63
2023-04-12T03:01:48.330Z,4.66
2023-04-12T03:02:56.533Z,4.60
2023-04-12T03:03:59.908Z,4.61
2023-04-12T03:05:09.171Z,4.59
2023-04-12T03:06:16.691Z,4.56
2023-04-12T03:07:20.781Z,4.53
2023-04-12T03:08:27.554Z,4.51
2023-04-12T03:09:32.963Z,4.50
2023-04-12T03:10:39.476Z,4.46
2023-04-12T03:11:42.897Z,4.54
2023-04-12T03:12:48.936Z,4.55
2023-04-12T03:13:53.120Z,4.58
2023-04-12T03:14:59.204Z,4.53
2023-04-12T03:16:22.888Z,4.46
2023-04-12T03:17:29.211Z,4.45
2023-04-12T03:18:32.636Z,4.46
2023-04-12T03:19:39.243Z,4.44
2023-04-12T03:20:47.310Z,4.46
2023-04-12T03:21:54.194Z,4.46
2023-04-12T03:22:57.798Z,4.51
2023-04-12T03:24:05.047Z,4.54
2023-04-12T03:25:10.432Z,4.55
2023-04-12T03:26:17.801Z,4.51
2023-04-12T03:27:21.008Z,4.47
2023-04-12T03:28:27.047Z,4.51
2023-04-12T03:29:30.980Z,4.46
2023-04-12T03:30:37.958Z,4.44
2023-04-12T03:31:44.150Z,4.47
2023-04-12T03:32:53.876Z,4.46
2023-04-12T03:33:57.984Z,4.49
2023-04-12T03:35:05.327Z,4.51
2023-04-12T03:36:12.972Z,4.48
2023-04-12T03:37:16.660Z,4.56
2023-04-12T03:38:24.063Z,4.59
2023-04-12T03:39:27.589Z,4.58
2023-04-12T03:40:34.873Z,4.65
2023-04-12T03:41:38.652Z,4.70
2023-04-12T03:42:45.051Z,4.63
2023-04-12T03:43:48.430Z,4.62
2023-04-12T03:44:55.546Z,4.62
2023-04-12T03:45:59.126Z,4.55
2023-04-12T03:47:08.712Z,4.54
2023-04-12T03:48:17.168Z,4.52
2023-04-12T03:49:23.079Z,4.60
2023-04-12T03:50:26.177Z,4.57
2023-04-12T03:51:32.401Z,4.62
2023-04-12T03:52:35.652Z,4.66
2023-04-12T03:53:42.619Z,4.63
2023-04-12T03:54:47.697Z,4.58
2023-04-12T03:55:54.456Z,4.64
2023-04-12T03:56:58.538Z,4.59
2023-04-12T03:58:05.160Z,4.58
2023-04-12T03:59:08.991Z,4.59
2023-04-12T04:00:17.182Z,4.59
2023-04-12T04:01:21.894Z,4.60
2023-04-12T04:02:33.169Z,4.58
2023-04-12T04:03:37.204Z,4.59
2023-04-12T04:04:46.806Z,4.58
2023-04-12T04:05:51.611Z,4.65
2023-04-12T04:06:58.406Z,4.66
2023-04-12T04:08:03.232Z,4.67
2023-04-12T04:09:09.774Z,4.67
2023-04-12T04:10:13.838Z,4.58
2023-04-12T04:11:20.444Z,4.59
2023-04-12T04:12:23.878Z,4.54
2023-04-12T04:13:29.953Z,4.59
2023-04-12T04:14:35.867Z,4.65
2023-04-12T04:15:48.432Z,4.73
2023-04-12T04:16:52.698Z,4.73
2023-04-12T04:18:02.501Z,4.73
2023-04-12T04:19:05.996Z,4.72
2023-04-12T04:20:14.408Z,4.66
2023-04-12T04:21:18.574Z,4.59
2023-04-12T04:22:25.098Z,4.53
2023-04-12T04:23:31.222Z,4.48
2023-04-12T04:24:39.772Z,4.47
2023-04-12T04:25:43.029Z,4.43
2023-04-12T04:26:51.028Z,4.42
2023-04-12T04:27:54.562Z,4.40
2023-04-12T04:29:02.707Z,4.40
2023-04-12T04:30:07.296Z,4.41
2023-04-12T04:31:18.351Z,4.39
2023-04-12T04:32:22.062Z,4.37
2023-04-12T04:33:31.523Z,4.42
2023-04-12T04:34:35.236Z,4.40
2023-04-12T04:35:44.328Z,4.37
2023-04-12T04:36:47.691Z,4.46
2023-04-12T04:37:54.312Z,4.41
2023-04-12T04:38:58.473Z,4.40
2023-04-12T04:40:09.457Z,4.47
2023-04-12T04:41:13.190Z,4.50
2023-04-12T04:42:19.409Z,4.48
2023-04-12T04:43:23.509Z,4.58
2023-04-12T04:44:30.879Z,4.62
2023-04-12T04:45:38.328Z,4.57
2023-04-12T04:46:45.854Z,4.52
2023-04-12T04:47:49.596Z,4.49
2023-04-12T04:48:59.719Z,4.52
2023-04-12T04:50:03.571Z,4.49
2023-04-12T04:51:10.125Z,4.49
2023-04-12T04:52:14.329Z,4.45
2023-04-12T04:53:22.857Z,4.46
2023-04-12T04:54:26.350Z,4.43
2023-04-12T04:55:32.935Z,4.52
2023-04-12T04:56:37.109Z,4.51
2023-04-12T04:57:46.049Z,4.52
2023-04-12T04:58:50.017Z,4.49
2023-04-12T04:59:56.062Z,4.47
2023-04-12T05:01:00.227Z,4.47
2023-04-12T05:02:07.248Z,4.49
2023-04-12T05:03:11.008Z,4.51
2023-04-12T05:04:19.874Z,4.62
2023-04-12T05:05:23.866Z,4.65
2023-04-12T05:06:31.836Z,4.78
2023-04-12T05:07:35.805Z,4.72
2023-04-12T05:08:45.832Z,4.62
2023-04-12T05:09:52.786Z,4.61
2023-04-12T05:10:57.162Z,4.61
2023-04-12T05:12:03.340Z,4.59
2023-04-12T05:13:07.556Z,4.57
2023-04-12T05:14:13.910Z,4.59
2023-04-12T05:15:17.875Z,4.58
2023-04-12T05:16:24.963Z,4.58
2023-04-12T05:17:28.984Z,4.58
2023-04-12T05:18:35.367Z,4.59
2023-04-12T05:19:44.217Z,4.60
2023-04-12T05:20:51.193Z,4.59
2023-04-12T05:21:54.614Z,4.62
2023-04-12T05:23:01.145Z,4.65
2023-04-12T05:24:05.764Z,4.64
2023-04-12T05:25:15.044Z,4.68
2023-04-12T05:26:18.871Z,4.68
2023-04-12T05:27:25.203Z,4.65
2023-04-12T05:28:28.545Z,4.70
2023-04-12T05:29:35.785Z,4.78
2023-04-12T05:30:40.734Z,4.86
2023-04-12T05:31:48.538Z,4.85
2023-04-12T05:32:56.682Z,4.77
2023-04-12T05:34:02.716Z,4.75
2023-04-12T05:35:12.669Z,4.74
2023-04-12T05:36:19.163Z,4.79
2023-04-12T05:37:26.108Z,4.78
2023-04-12T05:38:32.350Z,4.77
2023-04-12T05:39:36.265Z,4.75
2023-04-12T05:40:44.695Z,4.76
2023-04-12T05:41:48.098Z,4.76
2023-04-12T05:42:56.373Z,4.74
2023-04-12T05:44:04.055Z,4.74
2023-04-12T05:45:08.383Z,4.78
2023-04-12T05:46:15.278Z,4.80
2023-04-12T05:47:18.513Z,4.80
2023-04-12T05:48:25.603Z,4.86
2023-04-12T05:49:31.328Z,4.88
2023-04-12T05:50:40.545Z,5.06
2023-04-12T05:51:44.463Z,5.09
2023-04-12T05:52:51.495Z,5.10
2023-04-12T05:53:55.479Z,5.13
2023-04-12T05:55:01.659Z,5.07
2023-04-12T05:56:05.538Z,5.04
2023-04-12T05:57:13.272Z,5.04
2023-04-12T05:58:17.738Z,5.03
2023-04-12T05:59:24.610Z,5.05
2023-04-12T06:00:31.839Z,5.06
2023-04-12T06:01:37.673Z,5.07
2023-04-12T06:02:43.712Z,5.08
2023-04-12T06:03:50.018Z,5.11
2023-04-12T06:04:54.405Z,5.11
2023-04-12T06:06:04.696Z,5.11
2023-04-12T06:07:12.010Z,5.11
2023-04-12T06:08:15.682Z,5.15
2023-04-12T06:09:22.360Z,5.16
2023-04-12T06:10:25.811Z,5.18
2023-04-12T06:11:32.342Z,5.20
2023-04-12T06:12:36.566Z,5.25
2023-04-12T06:13:43.550Z,5.27
2023-04-12T06:14:47.133Z,5.36
2023-04-12T06:15:53.591Z,5.41
2023-04-12T06:16:57.513Z,5.45
2023-04-12T06:18:04.009Z,5.45
2023-04-12T06:19:07.789Z,5.51
2023-04-12T06:20:16.051Z,5.55
2023-04-12T06:21:23.184Z,5.48
2023-04-12T06:22:30.137Z,5.48
2023-04-12T06:23:37.933Z,5.43
2023-04-12T06:24:46.879Z,5.47
2023-04-12T06:25:53.884Z,5.51
2023-04-12T06:26:57.433Z,5.42
2023-04-12T06:28:04.571Z,5.48
2023-04-12T06:29:08.085Z,5.51
2023-04-12T06:30:15.252Z,5.50
2023-04-12T06:31:19.420Z,5.57
2023-04-12T06:32:26.089Z,5.59
2023-04-12T06:33:32.611Z,5.61
2023-04-12T06:34:35.656Z,5.60
2023-04-12T06:35:44.929Z,5.63
2023-04-12T06:36:57.910Z,5.65
2023-04-12T06:38:01.052Z,5.60
2023-04-12T06:39:09.865Z,5.56
2023-04-12T06:40:13.181Z,5.55
2023-04-12T06:41:19.982Z,5.55
2023-04-12T06:42:24.276Z,5.60
2023-04-12T06:43:31.041Z,5.61
2023-04-12T06:44:35.095Z,5.64
2023-04-12T06:45:42.283Z,5.67
2023-04-12T06:46:45.889Z,5.71
2023-04-12T06:47:58.040Z,5.70
2023-04-12T06:49:03.999Z,5.70
2023-04-12T06:50:11.184Z,5.68
2023-04-12T06:51:14.570Z,5.72
2023-04-12T06:52:23.387Z,5.70
2023-04-12T06:53:28.009Z,5.72
2023-04-12T06:54:34.191Z,5.73
2023-04-12T06:55:42.965Z,5.61
2023-04-12T06:56:48.952Z,5.64
2023-04-12T06:57:54.536Z,5.72
2023-04-12T06:58:57.765Z,5.73
2023-04-12T07:00:03.968Z,5.73
2023-04-12T07:01:09.298Z,5.77
2023-04-12T07:02:16.009Z,5.79
2023-04-12T07:03:25.142Z,5.79
2023-04-12T07:04:33.293Z,5.82
2023-04-12T07:05:42.833Z,5.85
2023-04-12T07:06:49.353Z,5.86
2023-04-12T07:07:58.398Z,5.84
2023-04-12T07:09:02.437Z,5.87
2023-04-12T07:10:09.840Z,5.87
2023-04-12T07:11:20.914Z,5.85
2023-04-12T07:12:30.027Z,5.79
2023-04-12T07:13:37.033Z,5.83
2023-04-12T07:14:44.719Z,5.84
2023-04-12T07:15:52.682Z,5.84
2023-04-12T07:16:56.210Z,5.85
2023-04-12T07:18:02.711Z,5.83
2023-04-12T07:19:06.384Z,5.94
2023-04-12T07:20:13.579Z,5.97
2023-04-12T07:21:20.748Z,5.96
2023-04-12T07:22:24.305Z,5.90
2023-04-12T07:23:34.623Z,6.01
2023-04-12T07:24:38.365Z,6.04
2023-04-12T07:25:44.301Z,6.12
2023-04-12T07:26:50.175Z,6.08
2023-04-12T07:27:53.819Z,5.99
2023-04-12T07:29:00.318Z,6.00
2023-04-12T07:30:08.042Z,6.11
2023-04-12T07:31:12.039Z,6.18
2023-04-12T07:32:17.791Z,6.12
2023-04-12T07:33:20.868Z,6.12
2023-04-12T07:34:28.081Z,6.16
2023-04-12T07:35:31.972Z,6.06
2023-04-12T07:36:38.308Z,6.07
2023-04-12T07:37:41.325Z,6.27
2023-04-12T07:38:56.097Z,6.11
2023-04-12T07:40:02.937Z,6.16
2023-04-12T07:41:06.612Z,6.21
2023-04-12T07:42:13.004Z,6.30
2023-04-12T07:43:17.686Z,6.31
2023-04-12T07:44:23.515Z,6.42
2023-04-12T07:45:29.939Z,6.42
2023-04-12T07:46:34.661Z,6.39
2023-04-12T07:47:41.271Z,6.36
2023-04-12T07:48:45.973Z,6.41
2023-04-12T07:49:52.130Z,6.49
2023-04-12T07:50:55.446Z,6.46
2023-04-12T07:52:00.943Z,6.50
2023-04-12T07:53:19.931Z,6.54
2023-04-12T07:54:31.883Z,6.54
2023-04-12T07:55:35.070Z,6.52
2023-04-12T07:56:41.096Z,6.54
2023-04-12T07:57:47.156Z,6.56
2023-04-12T07:58:50.807Z,6.62
2023-04-12T07:59:58.079Z,6.53
2023-04-12T08:01:03.883Z,6.41
2023-04-12T08:02:07.142Z,6.57
2023-04-12T08:03:15.193Z,6.47
2023-04-12T08:04:21.845Z,6.41
2023-04-12T08:05:25.758Z,6.56
2023-04-12T08:06:34.665Z,6.55
2023-04-12T08:07:38.369Z,6.58
2023-04-12T08:08:45.484Z,6.50
2023-04-12T08:09:54.914Z,6.52
2023-04-12T08:10:58.585Z,6.50
2023-04-12T08:12:06.163Z,6.62
2023-04-12T08:13:09.722Z,6.68
2023-04-12T08:14:15.986Z,6.69
2023-04-12T08:15:19.569Z,6.66
2023-04-12T08:16:25.636Z,6.58
2023-04-12T08:17:33.690Z,6.61
2023-04-12T08:18:37.224Z,6.57
2023-04-12T08:19:44.792Z,6.69
2023-04-12T08:20:51.360Z,6.68
2023-04-12T08:21:58.245Z,6.69
2023-04-12T08:23:05.310Z,6.78
2023-04-12T08:24:16.191Z,6.85
2023-04-12T08:25:24.029Z,6.74
2023-04-12T08:26:35.834Z,6.75
2023-04-12T08:27:58.518Z,6.77
2023-04-12T08:29:06.937Z,6.78
2023-04-12T08:30:15.835Z,6.75
2023-04-12T08:31:23.005Z,6.80
2023-04-12T08:32:27.386Z,6.77
2023-04-12T08:33:33.520Z,6.76
2023-04-12T08:34:38.839Z,6.76
2023-04-12T08:35:50.059Z,6.79
2023-04-12T08:36:53.717Z,6.78
2023-04-12T08:38:00.991Z,6.71
2023-04-12T08:39:08.048Z,6.78
2023-04-12T08:40:11.805Z,6.86
2023-04-12T08:41:22.422Z,6.88
2023-04-12T08:42:27.621Z,6.90
2023-04-12T08:43:36.040Z,6.86
2023-04-12T08:44:43.829Z,7.01
2023-04-12T08:45:50.503Z,7.17
2023-04-12T08:46:53.967Z,7.00
2023-04-12T08:47:58.906Z,6.98
2023-04-12T08:49:01.264Z,6.99
2023-04-12T08:50:09.636Z,6.95
2023-04-12T08:51:14.604Z,6.91
2023-04-12T08:52:23.415Z,7.04
2023-04-12T08:53:29.152Z,6.97
2023-04-12T08:54:31.936Z,6.89
2023-04-12T08:55:37.654Z,6.87
2023-04-12T08:56:45.199Z,6.92
2023-04-12T08:57:52.864Z,6.84
2023-04-12T08:58:59.975Z,6.84
2023-04-12T09:00:04.230Z,6.81
2023-04-12T09:01:14.571Z,6.83
2023-04-12T09:02:19.989Z,6.81
2023-04-12T09:03:25.813Z,6.81
2023-04-12T09:04:28.566Z,6.87
2023-04-12T09:05:34.569Z,6.83
2023-04-12T09:06:37.405Z,6.79
2023-04-12T09:07:42.905Z,6.80
2023-04-12T09:08:55.751Z,6.82
2023-04-12T09:10:02.556Z,6.83
2023-04-12T09:11:25.436Z,6.81
2023-04-12T09:12:31.011Z,6.82
2023-04-12T09:13:37.613Z,6.84
2023-04-12T09:14:44.012Z,6.81
2023-04-12T09:15:53.893Z,6.85
2023-04-12T09:16:57.165Z,6.82
2023-04-12T09:18:12.762Z,6.89
2023-04-12T09:19:17.514Z,6.92
2023-04-12T09:20:29.044Z,7.04
2023-04-12T09:21:36.717Z,7.09
2023-04-12T09:22:45.882Z,7.11
2023-04-12T09:24:13.309Z,7.26
2023-04-12T09:25:19.949Z,7.18
2023-04-12T09:26:31.780Z,7.13
2023-04-12T09:27:53.364Z,7.14
2023-04-12T09:29:02.408Z,7.15
2023-04-12T09:30:14.272Z,7.14
2023-04-12T09:31:20.518Z,7.14
2023-04-12T09:32:27.713Z,7.10
2023-04-12T09:33:41.011Z,7.12
2023-04-12T09:35:03.186Z,7.12
2023-04-12T09:36:14.972Z,7.18
2023-04-12T09:37:21.222Z,7.16
2023-04-12T09:38:27.236Z,7.18
2023-04-12T09:39:38.756Z,7.24
2023-04-12T09:40:44.213Z,7.23
2023-04-12T09:41:50.497Z,7.15
2023-04-12T09:42:57.502Z,7.24
2023-04-12T09:44:03.561Z,7.29
2023-04-12T09:45:21.360Z,7.30
2023-04-12T09:46:26.477Z,7.28
2023-04-12T09:47:41.553Z,7.24
2023-04-12T09:48:54.210Z,7.30
2023-04-12T09:49:57.911Z,7.46
2023-04-12T09:51:05.306Z,7.45
2023-04-12T09:52:11.812Z,7.48
2023-04-12T09:53:20.407Z,7.56
2023-04-12T09:54:24.575Z,7.57
2023-04-12T09:55:32.798Z,7.53
2023-04-12T09:56:43.418Z,7.55
2023-04-12T09:57:49.632Z,7.54
2023-04-12T09:58:58.214Z,7.55
2023-04-12T10:00:13.010Z,7.66
2023-04-12T10:01:18.272Z,7.67
2023-04-12T10:02:32.351Z,7.70
2023-04-12T10:03:40.115Z,7.79
2023-04-12T10:04:47.265Z,7.81
2023-04-12T10:05:53.955Z,7.82
2023-04-12T10:06:57.450Z,7.80
2023-04-12T10:08:05.267Z,7.75
2023-04-12T10:09:15.221Z,7.90
2023-04-12T10:10:20.448Z,7.92
2023-04-12T10:11:28.009Z,7.90
2023-04-12T10:12:32.353Z,7.92
2023-04-12T10:13:44.516Z,7.89
2023-04-12T10:14:52.883Z,7.98
2023-04-12T10:16:00.817Z,7.90
2023-04-12T10:17:09.090Z,8.00
2023-04-12T10:18:18.458Z,7.96
2023-04-12T10:19:26.052Z,7.99
2023-04-12T10:20:36.035Z,8.07
2023-04-12T10:21:39.613Z,8.11
2023-04-12T10:22:46.897Z,8.21
2023-04-12T10:23:50.801Z,8.35
2023-04-12T10:24:57.125Z,8.20
2023-04-12T10:26:08.480Z,8.11
2023-04-12T10:27:17.442Z,8.07
2023-04-12T10:28:25.040Z,8.00
2023-04-12T10:29:29.548Z,8.00
2023-04-12T10:30:39.159Z,7.97
2023-04-12T10:31:42.922Z,7.85
2023-04-12T10:32:49.347Z,7.88
2023-04-12T10:33:59.221Z,7.89
2023-04-12T10:35:06.829Z,7.96
2023-04-12T10:36:17.046Z,8.03
2023-04-12T10:37:21.018Z,8.15
2023-04-12T10:38:34.555Z,8.18
2023-04-12T10:39:42.143Z,8.26
2023-04-12T10:41:17.438Z,8.30
2023-04-12T10:42:24.434Z,8.35
2023-04-12T10:43:30.979Z,8.47
2023-04-12T10:44:37.367Z,8.37
2023-04-12T10:45:47.818Z,8.39
2023-04-12T10:46:51.742Z,8.32
2023-04-12T10:48:07.137Z,8.27
2023-04-12T10:49:11.114Z,8.20
2023-04-12T10:50:30.653Z,8.21
2023-04-12T10:51:34.402Z,8.21
2023-04-12T10:52:42.392Z,8.21
2023-04-12T10:53:49.343Z,8.23
2023-04-12T10:54:56.415Z,8.21
2023-04-12T10:55:59.732Z,8.27
2023-04-12T10:57:33.023Z,8.24
2023-04-12T10:59:04.133Z,8.25
2023-04-12T11:00:10.054Z,8.33
2023-04-12T11:01:19.748Z,8.36
2023-04-12T11:02:26.531Z,8.38
2023-04-12T11:03:31.600Z,8.44
2023-04-12T11:04:39.743Z,8.47
2023-04-12T11:05:59.207Z,8.44
2023-04-12T11:07:07.376Z,8.47
2023-04-12T11:08:13.958Z,8.50
2023-04-12T11:09:26.006Z,8.53
2023-04-12T11:10:33.474Z,8.66
2023-04-12T11:11:39.671Z,8.62
2023-04-12T11:12:47.185Z,8.66
2023-04-12T11:13:57.479Z,8.71
2023-04-12T11:15:07.257Z,8.82
2023-04-12T11:16:13.617Z,8.80
2023-04-12T11:17:30.163Z,8.89
2023-04-12T11:18:34.987Z,8.97
2023-04-12T11:19:42.923Z,9.00
2023-04-12T11:20:50.463Z,9.22
2023-04-12T11:21:55.465Z,9.25
2023-04-12T11:23:02.723Z,9.31
2023-04-12T11:24:07.118Z,9.44
2023-04-12T11:25:14.234Z,9.56
2023-04-12T11:26:26.021Z,9.71
2023-04-12T11:27:33.509Z,9.72
2023-04-12T11:28:40.531Z,10.06
2023-04-12T11:29:44.373Z,10.35
2023-04-12T11:30:56.343Z,10.39
2023-04-12T11:32:00.659Z,10.59
2023-04-12T11:33:10.326Z,10.60
2023-04-12T11:34:16.016Z,10.95
2023-04-12T11:35:27.994Z,10.86
2023-04-12T11:36:32.390Z,11.06
2023-04-12T11:37:39.239Z,11.15
2023-04-12T11:38:43.603Z,11.06
2023-04-12T11:39:51.196Z,11.16
2023-04-12T11:40:58.668Z,11.12
2023-04-12T11:42:04.781Z,11.11
2023-04-12T11:43:12.085Z,10.87
2023-04-12T11:44:18.970Z,10.76
2023-04-12T11:45:30.298Z,10.79
2023-04-12T11:46:38.644Z,10.53
2023-04-12T11:47:48.436Z,10.52
2023-04-12T11:48:57.836Z,10.38
2023-04-12T11:50:06.086Z,10.29
2023-04-12T11:51:25.765Z,10.38
2023-04-12T11:52:36.824Z,10.63
2023-04-12T11:53:40.768Z,10.79
2023-04-12T11:54:51.225Z,10.63
2023-04-12T11:55:56.627Z,10.57
2023-04-12T11:57:05.079Z,10.66
2023-04-12T11:58:12.206Z,10.67
2023-04-12T11:59:17.588Z,10.70
2023-04-12T12:00:31.857Z,10.63
2023-04-12T12:01:39.492Z,10.64
2023-04-12T12:03:03.760Z,10.83
2023-04-12T12:04:17.072Z,10.74
2023-04-12T12:05:24.303Z,10.72
2023-04-12T12:06:36.491Z,10.61
2023-04-12T12:07:43.822Z,10.47
2023-04-12T12:08:51.156Z,10.59
2023-04-12T12:09:58.351Z,10.60
2023-04-12T12:11:07.683Z,10.62
2023-04-12T12:12:15.345Z,10.62
2023-04-12T12:13:19.334Z,10.60
2023-04-12T12:14:30.156Z,10.73
2023-04-12T12:15:34.892Z,10.68
2023-04-12T12:16:42.223Z,10.60
2023-04-12T12:17:49.373Z,10.57
2023-04-12T12:18:53.190Z,10.71
2023-04-12T12:20:05.613Z,10.66
2023-04-12T12:21:11.001Z,10.73
2023-04-12T12:22:18.814Z,10.59
2023-04-12T12:23:32.321Z,10.79
2023-04-12T12:24:42.051Z,10.74
2023-04-12T12:25:50.658Z,10.68
2023-04-12T12:26:53.580Z,10.75
2023-04-12T12:28:04.105Z,10.73
2023-04-12T12:29:09.707Z,10.85
2023-04-12T12:30:16.018Z,10.96
2023-04-12T12:31:20.843Z,11.06
2023-04-12T12:32:28.780Z,11.10
2023-04-12T12:33:45.731Z,11.26
2023-04-12T12:35:02.346Z,11.32
2023-04-12T12:36:05.824Z,11.19
2023-04-12T12:37:14.865Z,11.23
2023-04-12T12:38:20.287Z,11.34
2023-04-12T12:39:24.106Z,11.36
2023-04-12T12:40:33.414Z,11.24
2023-04-12T12:41:36.942Z,11.41
2023-04-12T12:42:50.551Z,11.21
2023-04-12T12:43:54.383Z,11.26
2023-04-12T12:45:00.534Z,11.27
2023-04-12T12:46:06.246Z,11.37
2023-04-12T12:47:14.303Z,11.17
2023-04-12T12:48:21.985Z,11.16
2023-04-12T12:49:24.933Z,11.23
2023-04-12T12:50:37.687Z,11.50
2023-04-12T12:51:43.835Z,11.59
2023-04-12T12:52:54.031Z,11.78
2023-04-12T12:54:00.304Z,11.88
2023-04-12T12:55:03.887Z,11.82
2023-04-12T12:56:12.259Z,11.92
2023-04-12T12:57:15.992Z,11.99
2023-04-12T12:58:22.540Z,11.78
2023-04-12T12:59:27.374Z,11.79
2023-04-12T13:00:34.241Z,11.75
2023-04-12T13:01:37.912Z,11.84
2023-04-12T13:02:44.672Z,11.88
2023-04-12T13:03:51.225Z,11.99
2023-04-12T13:04:58.600Z,12.11
2023-04-12T13:06:09.368Z,12.06
2023-04-12T13:07:13.438Z,12.10
2023-04-12T13:08:19.838Z,12.14
2023-04-12T13:09:26.457Z,12.33
2023-04-12T13:10:32.223Z,12.56
2023-04-12T13:11:34.942Z,13.07
2023-04-12T13:12:42.362Z,13.25
2023-04-12T13:13:46.284Z,12.95
2023-04-12T13:15:17.520Z,13.04
2023-04-12T13:16:27.292Z,12.99
2023-04-12T13:17:30.606Z,13.05
2023-04-12T13:18:36.292Z,12.98
2023-04-12T13:19:38.603Z,12.43
2023-04-12T13:20:43.770Z,12.74
2023-04-12T13:21:50.516Z,12.61
2023-04-12T13:22:56.927Z,12.48
2023-04-12T13:23:59.078Z,12.35
2023-04-12T13:25:04.427Z,12.22
2023-04-12T13:26:07.527Z,12.42
2023-04-12T13:27:15.033Z,12.46
2023-04-12T13:28:17.641Z,12.20
2023-04-12T13:29:22.584Z,12.05
2023-04-12T13:30:24.807Z,12.22
2023-04-12T13:31:30.044Z,12.40
2023-04-12T13:32:32.400Z,12.00
2023-04-12T13:33:38.873Z,12.10
2023-04-12T13:34:41.279Z,12.03
2023-04-12T13:35:46.264Z,12.19
2023-04-12T13:36:51.435Z,12.17
2023-04-12T13:37:56.274Z,12.18
2023-04-12T13:38:58.751Z,12.17
2023-04-12T13:40:03.919Z,12.13
2023-04-12T13:41:09.172Z,12.18
2023-04-12T13:42:11.275Z,12.26
2023-04-12T13:43:16.970Z,12.02
2023-04-12T13:44:19.474Z,12.10
2023-04-12T13:45:24.767Z,12.03
2023-04-12T13:46:26.984Z,11.85
2023-04-12T13:47:32.048Z,11.84
2023-04-12T13:48:36.870Z,11.98
2023-04-12T13:49:38.951Z,12.03
2023-04-12T13:50:43.791Z,12.01
2023-04-12T13:51:45.994Z,11.87
2023-04-12T13:52:53.838Z,11.79
2023-04-12T13:53:56.214Z,11.71
2023-04-12T13:55:01.227Z,11.73
2023-04-12T13:56:03.377Z,11.80
2023-04-12T13:57:08.608Z,11.89
2023-04-12T13:58:10.787Z,11.96
2023-04-12T13:59:15.681Z,12.15
2023-04-12T14:00:23.148Z,12.31
2023-04-12T14:01:28.171Z,12.28
2023-04-12T14:02:31.687Z,12.39
2023-04-12T14:03:37.033Z,12.46
2023-04-12T14:04:53.719Z,12.45
2023-04-12T14:05:56.309Z,12.44
2023-04-12T14:07:02.301Z,12.54
2023-04-12T14:08:07.300Z,12.40
2023-04-12T14:09:12.286Z,12.38
2023-04-12T14:10:14.828Z,12.25
2023-04-12T14:11:19.814Z,12.18
2023-04-12T14:12:24.781Z,12.13
2023-04-12T14:13:30.208Z,12.19
2023-04-12T14:14:35.161Z,12.12
2023-04-12T14:15:40.085Z,12.09
2023-04-12T14:16:42.192Z,11.95
2023-04-12T14:17:47.228Z,11.93
2023-04-12T14:18:49.681Z,12.02
2023-04-12T14:19:54.689Z,11.94
2023-04-12T14:20:59.406Z,11.98
2023-04-12T14:22:04.510Z,12.04
2023-04-12T14:23:09.838Z,11.93
2023-04-12T14:24:14.620Z,11.88
2023-04-12T14:25:16.891Z,11.95
2023-04-12T14:26:21.653Z,12.00
2023-04-12T14:27:26.617Z,11.79
2023-04-12T14:28:31.216Z,11.73
2023-04-12T14:29:35.918Z,11.80
2023-04-12T14:30:42.398Z,11.63
2023-04-12T14:31:47.148Z,11.70
2023-04-12T14:32:50.091Z,11.65
2023-04-12T14:33:55.377Z,11.59
2023-04-12T14:34:57.552Z,11.66
2023-04-12T14:36:05.295Z,11.71
2023-04-12T14:37:10.080Z,11.63
2023-04-12T14:38:18.074Z,11.66
2023-04-12T14:39:20.223Z,11.66
2023-04-12T14:40:25.348Z,11.71
2023-04-12T14:41:30.135Z,11.75
2023-04-12T14:42:35.186Z,11.69
2023-04-12T14:43:37.714Z,11.83
2023-04-12T14:44:42.623Z,11.84
2023-04-12T14:45:44.725Z,11.80
2023-04-12T14:46:49.671Z,11.93